sensor_id;sensor_type;location;lat;lon;timestamp;temperature;humidity
35559;DHT22;21661;50.794;-1.066;2023-04-01T00:00:17;10.90;99.90
35559;DHT22;21661;50.794;-1.066;2023-04-01T00:02:43;10.80;99.90
35559;DHT22;21661;50.794;-1.066;2023-04-01T00:05:09;11.00;99.90
35559;DHT22;21661;50.794;-1.066;2023-04-01T00:07:36;10.90;99.90
35559;DHT22;21661;50.794;-1.066;2023-04-01T00:10:03;10.90;99.90
35559;DHT22;21661;50.794;-1.066;2023-04-01T00:12:28;10.90;99.90
35559;DHT22;21661;50.794;-1.066;2023-04-01T00:14:55;10.90;99.90
35559;DHT22;21661;50.794;-1.066;2023-04-01T00:17:20;10.90;99.90
35559;DHT22;21661;50.794;-1.066;2023-04-01T00:19:46;10.90;99.90
35559;DHT22;21661;50.794;-1.066;2023-04-01T00:22:12;10.90;99.90
35559;DHT22;21661;50.794;-1.066;2023-04-01T00:24:38;11.00;99.90
35559;DHT22;21661;50.794;-1.066;2023-04-01T00:27:04;11.00;99.90
35559;DHT22;21661;50.794;-1.066;2023-04-01T00:29:30;11.00;99.90
35559;DHT22;21661;50.794;-1.066;2023-04-01T00:31:57;11.00;99.90
35559;DHT22;21661;50.794;-1.066;2023-04-01T00:34:23;11.00;99.90
35559;DHT22;21661;50.794;-1.066;2023-04-01T00:36:50;11.10;99.90
35559;DHT22;21661;50.794;-1.066;2023-04-01T00:39:16;11.00;99.90
35559;DHT22;21661;50.794;-1.066;2023-04-01T00:41:42;11.10;99.90
35559;DHT22;21661;50.794;-1.066;2023-04-01T00:46:41;11.00;99.90
35559;DHT22;21661;50.794;-1.066;2023-04-01T00:49:07;11.00;99.90
35559;DHT22;21661;50.794;-1.066;2023-04-01T00:51:33;11.00;99.90
35559;DHT22;21661;50.794;-1.066;2023-04-01T00:54:02;11.00;99.90
35559;DHT22;21661;50.794;-1.066;2023-04-01T00:56:37;11.00;99.90
35559;DHT22;21661;50.794;-1.066;2023-04-01T00:59:19;11.00;99.90
35559;DHT22;21661;50.794;-1.066;2023-04-01T01:01:46;11.00;99.90
35559;DHT22;21661;50.794;-1.066;2023-04-01T01:04:38;11.00;99.90
35559;DHT22;21661;50.794;-1.066;2023-04-01T01:18:18;11.00;99.90
35559;DHT22;21661;50.794;-1.066;2023-04-01T01:29:27;11.00;99.90
35559;DHT22;21661;50.794;-1.066;2023-04-01T01:37:31;11.00;99.90
35559;DHT22;21661;50.794;-1.066;2023-04-01T01:40:02;11.00;99.90
35559;DHT22;21661;50.794;-1.066;2023-04-01T01:42:31;11.10;99.90
35559;DHT22;21661;50.794;-1.066;2023-04-01T01:44:59;11.00;99.90
35559;DHT22;21661;50.794;-1.066;2023-04-01T01:47:27;11.00;99.90
35559;DHT22;21661;50.794;-1.066;2023-04-01T01:49:54;11.00;99.90
35559;DHT22;21661;50.794;-1.066;2023-04-01T01:52:22;10.90;99.90
35559;DHT22;21661;50.794;-1.066;2023-04-01T01:54:50;11.00;99.90
35559;DHT22;21661;50.794;-1.066;2023-04-01T01:57:19;10.90;99.90
35559;DHT22;21661;50.794;-1.066;2023-04-01T01:59:47;10.90;99.90
35559;DHT22;21661;50.794;-1.066;2023-04-01T02:02:15;10.90;99.90
35559;DHT22;21661;50.794;-1.066;2023-04-01T02:04:43;10.90;99.90
35559;DHT22;21661;50.794;-1.066;2023-04-01T02:07:15;10.80;99.90
35559;DHT22;21661;50.794;-1.066;2023-04-01T02:09:42;10.80;99.90
35559;DHT22;21661;50.794;-1.066;2023-04-01T02:12:11;10.70;99.90
35559;DHT22;21661;50.794;-1.066;2023-04-01T02:14:57;10.70;99.90
35559;DHT22;21661;50.794;-1.066;2023-04-01T02:17:27;10.60;99.90
35559;DHT22;21661;50.794;-1.066;2023-04-01T02:20:06;10.60;99.90
35559;DHT22;21661;50.794;-1.066;2023-04-01T02:22:37;10.70;99.90
35559;DHT22;21661;50.794;-1.066;2023-04-01T02:25:13;10.70;99.90
35559;DHT22;21661;50.794;-1.066;2023-04-01T02:27:40;10.60;99.90
35559;DHT22;21661;50.794;-1.066;2023-04-01T02:30:08;10.60;99.90
35559;DHT22;21661;50.794;-1.066;2023-04-01T02:32:35;10.60;99.90
35559;DHT22;21661;50.794;-1.066;2023-04-01T02:35:09;10.50;99.90
35559;DHT22;21661;50.794;-1.066;2023-04-01T02:37:36;10.60;99.90
35559;DHT22;21661;50.794;-1.066;2023-04-01T02:40:06;10.50;99.90
35559;DHT22;21661;50.794;-1.066;2023-04-01T02:42:33;10.50;99.90
35559;DHT22;21661;50.794;-1.066;2023-04-01T02:44:59;10.40;99.90
35559;DHT22;21661;50.794;-1.066;2023-04-01T02:47:25;10.50;99.90
35559;DHT22;21661;50.794;-1.066;2023-04-01T02:49:50;10.50;99.90
35559;DHT22;21661;50.794;-1.066;2023-04-01T02:52:16;10.50;99.90
35559;DHT22;21661;50.794;-1.066;2023-04-01T02:54:42;10.50;99.90
35559;DHT22;21661;50.794;-1.066;2023-04-01T02:57:07;10.30;99.90
35559;DHT22;21661;50.794;-1.066;2023-04-01T02:59:33;10.40;99.90
35559;DHT22;21661;50.794;-1.066;2023-04-01T03:01:58;10.40;99.90
35559;DHT22;21661;50.794;-1.066;2023-04-01T03:04:24;10.40;99.90
35559;DHT22;21661;50.794;-1.066;2023-04-01T03:06:50;10.40;99.90
35559;DHT22;21661;50.794;-1.066;2023-04-01T03:09:16;10.50;99.90
35559;DHT22;21661;50.794;-1.066;2023-04-01T03:11:42;10.30;99.90
35559;DHT22;21661;50.794;-1.066;2023-04-01T03:14:07;10.30;99.90
35559;DHT22;21661;50.794;-1.066;2023-04-01T03:16:33;10.30;99.90
35559;DHT22;21661;50.794;-1.066;2023-04-01T03:18:58;10.30;99.90
35559;DHT22;21661;50.794;-1.066;2023-04-01T03:21:27;10.40;99.90
35559;DHT22;21661;50.794;-1.066;2023-04-01T03:23:52;10.40;99.90
35559;DHT22;21661;50.794;-1.066;2023-04-01T03:26:18;10.30;99.90
35559;DHT22;21661;50.794;-1.066;2023-04-01T03:28:44;10.30;99.90
35559;DHT22;21661;50.794;-1.066;2023-04-01T03:31:10;10.20;99.90
35559;DHT22;21661;50.794;-1.066;2023-04-01T03:33:36;10.30;99.90
35559;DHT22;21661;50.794;-1.066;2023-04-01T03:36:01;10.30;99.90
35559;DHT22;21661;50.794;-1.066;2023-04-01T03:38:28;10.30;99.90
35559;DHT22;21661;50.794;-1.066;2023-04-01T03:40:54;10.30;99.90
35559;DHT22;21661;50.794;-1.066;2023-04-01T03:43:19;10.20;99.90
35559;DHT22;21661;50.794;-1.066;2023-04-01T03:45:50;10.20;99.90
35559;DHT22;21661;50.794;-1.066;2023-04-01T03:48:16;10.40;99.90
35559;DHT22;21661;50.794;-1.066;2023-04-01T03:50:42;10.30;99.90
35559;DHT22;21661;50.794;-1.066;2023-04-01T03:53:08;10.20;99.90
35559;DHT22;21661;50.794;-1.066;2023-04-01T03:55:36;10.30;99.90
35559;DHT22;21661;50.794;-1.066;2023-04-01T03:58:02;10.20;99.90
35559;DHT22;21661;50.794;-1.066;2023-04-01T04:00:29;10.10;99.90
35559;DHT22;21661;50.794;-1.066;2023-04-01T04:02:55;10.20;99.90
35559;DHT22;21661;50.794;-1.066;2023-04-01T04:05:22;10.20;99.90
35559;DHT22;21661;50.794;-1.066;2023-04-01T04:07:48;10.20;99.90
35559;DHT22;21661;50.794;-1.066;2023-04-01T04:10:14;10.20;99.90
35559;DHT22;21661;50.794;-1.066;2023-04-01T04:12:40;10.20;99.90
35559;DHT22;21661;50.794;-1.066;2023-04-01T04:15:06;10.20;99.90
35559;DHT22;21661;50.794;-1.066;2023-04-01T04:17:32;10.20;99.90
35559;DHT22;21661;50.794;-1.066;2023-04-01T04:19:58;10.20;99.90
35559;DHT22;21661;50.794;-1.066;2023-04-01T04:22:23;10.20;99.90
35559;DHT22;21661;50.794;-1.066;2023-04-01T04:24:49;10.10;99.90
35559;DHT22;21661;50.794;-1.066;2023-04-01T04:27:15;10.30;99.90
35559;DHT22;21661;50.794;-1.066;2023-04-01T04:29:40;10.00;99.90
35559;DHT22;21661;50.794;-1.066;2023-04-01T04:32:06;10.10;99.90
35559;DHT22;21661;50.794;-1.066;2023-04-01T04:34:32;10.10;99.90
35559;DHT22;21661;50.794;-1.066;2023-04-01T04:36:58;10.10;99.90
35559;DHT22;21661;50.794;-1.066;2023-04-01T04:39:23;10.00;99.90
35559;DHT22;21661;50.794;-1.066;2023-04-01T04:41:49;10.10;99.90
35559;DHT22;21661;50.794;-1.066;2023-04-01T04:44:15;10.10;99.90
35559;DHT22;21661;50.794;-1.066;2023-04-01T04:46:41;10.10;99.90
35559;DHT22;21661;50.794;-1.066;2023-04-01T04:49:07;10.10;99.90
35559;DHT22;21661;50.794;-1.066;2023-04-01T04:51:33;10.10;99.90
35559;DHT22;21661;50.794;-1.066;2023-04-01T04:54:04;10.10;99.90
35559;DHT22;21661;50.794;-1.066;2023-04-01T04:56:30;10.10;99.90
35559;DHT22;21661;50.794;-1.066;2023-04-01T04:58:56;10.20;99.90
35559;DHT22;21661;50.794;-1.066;2023-04-01T05:01:22;10.10;99.90
35559;DHT22;21661;50.794;-1.066;2023-04-01T05:03:48;10.30;99.90
35559;DHT22;21661;50.794;-1.066;2023-04-01T05:06:15;10.10;99.90
35559;DHT22;21661;50.794;-1.066;2023-04-01T05:08:42;10.10;99.90
35559;DHT22;21661;50.794;-1.066;2023-04-01T05:11:17;10.10;99.90
35559;DHT22;21661;50.794;-1.066;2023-04-01T05:13:43;10.10;99.90
35559;DHT22;21661;50.794;-1.066;2023-04-01T05:16:11;10.10;99.90
35559;DHT22;21661;50.794;-1.066;2023-04-01T05:18:37;10.00;99.90
35559;DHT22;21661;50.794;-1.066;2023-04-01T05:21:03;10.10;99.90
35559;DHT22;21661;50.794;-1.066;2023-04-01T05:23:31;10.10;99.90
35559;DHT22;21661;50.794;-1.066;2023-04-01T05:25:57;10.10;99.90
35559;DHT22;21661;50.794;-1.066;2023-04-01T05:28:22;10.10;99.90
35559;DHT22;21661;50.794;-1.066;2023-04-01T05:30:48;10.10;99.90
35559;DHT22;21661;50.794;-1.066;2023-04-01T05:33:14;10.10;99.90
35559;DHT22;21661;50.794;-1.066;2023-04-01T05:35:40;10.10;99.90
35559;DHT22;21661;50.794;-1.066;2023-04-01T05:38:06;10.10;99.90
35559;DHT22;21661;50.794;-1.066;2023-04-01T05:40:32;10.00;99.90
35559;DHT22;21661;50.794;-1.066;2023-04-01T05:42:58;10.10;99.90
35559;DHT22;21661;50.794;-1.066;2023-04-01T05:45:24;10.10;99.90
35559;DHT22;21661;50.794;-1.066;2023-04-01T05:47:50;10.10;99.90
35559;DHT22;21661;50.794;-1.066;2023-04-01T05:50:15;10.00;99.90
35559;DHT22;21661;50.794;-1.066;2023-04-01T05:52:41;10.00;99.90
35559;DHT22;21661;50.794;-1.066;2023-04-01T05:55:07;10.00;99.90
35559;DHT22;21661;50.794;-1.066;2023-04-01T05:57:34;10.00;99.90
35559;DHT22;21661;50.794;-1.066;2023-04-01T05:59:59;10.00;99.90
35559;DHT22;21661;50.794;-1.066;2023-04-01T06:02:25;10.00;99.90
35559;DHT22;21661;50.794;-1.066;2023-04-01T06:05:01;10.20;99.90
35559;DHT22;21661;50.794;-1.066;2023-04-01T06:07:27;10.00;99.90
35559;DHT22;21661;50.794;-1.066;2023-04-01T06:09:55;9.90;99.90
35559;DHT22;21661;50.794;-1.066;2023-04-01T06:12:45;10.00;99.90
35559;DHT22;21661;50.794;-1.066;2023-04-01T06:15:26;9.90;99.90
35559;DHT22;21661;50.794;-1.066;2023-04-01T06:31:24;10.00;99.90
35559;DHT22;21661;50.794;-1.066;2023-04-01T06:37:07;9.90;99.90
35559;DHT22;21661;50.794;-1.066;2023-04-01T06:42:56;10.00;99.90
35559;DHT22;21661;50.794;-1.066;2023-04-01T06:56:21;10.00;99.90
35559;DHT22;21661;50.794;-1.066;2023-04-01T06:58:51;10.00;99.90
35559;DHT22;21661;50.794;-1.066;2023-04-01T07:01:22;10.00;99.90
35559;DHT22;21661;50.794;-1.066;2023-04-01T07:06:39;10.00;99.90
35559;DHT22;21661;50.794;-1.066;2023-04-01T07:09:09;9.90;99.90
35559;DHT22;21661;50.794;-1.066;2023-04-01T07:11:37;10.00;99.90
35559;DHT22;21661;50.794;-1.066;2023-04-01T07:16:43;10.00;99.90
35559;DHT22;21661;50.794;-1.066;2023-04-01T07:19:22;10.00;99.90
35559;DHT22;21661;50.794;-1.066;2023-04-01T07:21:54;10.00;99.90
35559;DHT22;21661;50.794;-1.066;2023-04-01T07:24:29;9.90;99.90
35559;DHT22;21661;50.794;-1.066;2023-04-01T07:26:57;10.00;99.90
35559;DHT22;21661;50.794;-1.066;2023-04-01T07:29:25;10.10;99.90
35559;DHT22;21661;50.794;-1.066;2023-04-01T07:34:52;10.10;99.90
35559;DHT22;21661;50.794;-1.066;2023-04-01T07:40:21;10.20;99.90
35559;DHT22;21661;50.794;-1.066;2023-04-01T07:46:03;10.10;99.90
35559;DHT22;21661;50.794;-1.066;2023-04-01T07:56:05;10.20;99.90
35559;DHT22;21661;50.794;-1.066;2023-04-01T08:26:13;10.40;99.90
35559;DHT22;21661;50.794;-1.066;2023-04-01T08:28:49;10.50;99.90
35559;DHT22;21661;50.794;-1.066;2023-04-01T08:33:44;10.40;99.90
35559;DHT22;21661;50.794;-1.066;2023-04-01T08:36:31;10.40;99.90
35559;DHT22;21661;50.794;-1.066;2023-04-01T08:39:09;10.40;99.90
35559;DHT22;21661;50.794;-1.066;2023-04-01T08:55:31;10.40;99.90
35559;DHT22;21661;50.794;-1.066;2023-04-01T09:06:25;10.40;99.90
35559;DHT22;21661;50.794;-1.066;2023-04-01T09:26:48;10.70;99.90
35559;DHT22;21661;50.794;-1.066;2023-04-01T09:29:31;10.70;99.90
35559;DHT22;21661;50.794;-1.066;2023-04-01T09:32:33;10.70;99.90
35559;DHT22;21661;50.794;-1.066;2023-04-01T09:43:28;10.70;99.90
35559;DHT22;21661;50.794;-1.066;2023-04-01T09:51:26;10.70;99.90
35559;DHT22;21661;50.794;-1.066;2023-04-01T09:54:17;10.70;99.90
35559;DHT22;21661;50.794;-1.066;2023-04-01T09:57:08;10.70;99.90
35559;DHT22;21661;50.794;-1.066;2023-04-01T09:59:45;10.70;99.90
35559;DHT22;21661;50.794;-1.066;2023-04-01T10:02:34;10.70;99.90
35559;DHT22;21661;50.794;-1.066;2023-04-01T10:11:14;10.60;99.90
35559;DHT22;21661;50.794;-1.066;2023-04-01T10:24:31;10.70;99.90
35559;DHT22;21661;50.794;-1.066;2023-04-01T10:41:16;11.30;99.90
35559;DHT22;21661;50.794;-1.066;2023-04-01T10:47:25;11.40;99.90
35559;DHT22;21661;50.794;-1.066;2023-04-01T10:53:49;11.50;99.90
35559;DHT22;21661;50.794;-1.066;2023-04-01T11:18:09;11.10;99.90
35559;DHT22;21661;50.794;-1.066;2023-04-01T11:25:55;11.10;99.90
35559;DHT22;21661;50.794;-1.066;2023-04-01T11:31:25;11.20;99.90
35559;DHT22;21661;50.794;-1.066;2023-04-01T11:34:21;11.20;99.90
35559;DHT22;21661;50.794;-1.066;2023-04-01T12:02:18;12.00;99.90
35559;DHT22;21661;50.794;-1.066;2023-04-01T12:10:39;12.00;99.90
35559;DHT22;21661;50.794;-1.066;2023-04-01T12:18:56;11.60;99.90
35559;DHT22;21661;50.794;-1.066;2023-04-01T12:27:45;11.50;99.90
35559;DHT22;21661;50.794;-1.066;2023-04-01T12:30:21;11.60;99.90
35559;DHT22;21661;50.794;-1.066;2023-04-01T12:41:13;11.80;99.90
35559;DHT22;21661;50.794;-1.066;2023-04-01T12:52:09;11.90;99.90
35559;DHT22;21661;50.794;-1.066;2023-04-01T13:00:17;12.10;99.90
35559;DHT22;21661;50.794;-1.066;2023-04-01T13:17:54;12.80;99.90
35559;DHT22;21661;50.794;-1.066;2023-04-01T13:20:29;12.70;99.90
35559;DHT22;21661;50.794;-1.066;2023-04-01T13:28:20;12.70;99.90
35559;DHT22;21661;50.794;-1.066;2023-04-01T13:44:33;13.10;99.90
35559;DHT22;21661;50.794;-1.066;2023-04-01T13:55:30;12.80;99.90
35559;DHT22;21661;50.794;-1.066;2023-04-01T13:58:13;12.90;99.90
35559;DHT22;21661;50.794;-1.066;2023-04-01T14:01:10;12.90;99.90
35559;DHT22;21661;50.794;-1.066;2023-04-01T14:03:53;12.70;99.90
35559;DHT22;21661;50.794;-1.066;2023-04-01T14:12:06;13.00;99.90
35559;DHT22;21661;50.794;-1.066;2023-04-01T14:17:35;12.90;99.90
35559;DHT22;21661;50.794;-1.066;2023-04-01T14:26:07;12.70;99.90
35559;DHT22;21661;50.794;-1.066;2023-04-01T14:37:48;12.30;99.90
35559;DHT22;21661;50.794;-1.066;2023-04-01T14:45:44;12.50;99.90
35559;DHT22;21661;50.794;-1.066;2023-04-01T14:51:02;12.40;99.90
35559;DHT22;21661;50.794;-1.066;2023-04-01T14:53:34;12.40;99.90
35559;DHT22;21661;50.794;-1.066;2023-04-01T14:56:04;12.40;99.90
35559;DHT22;21661;50.794;-1.066;2023-04-01T14:58:46;12.30;99.90
35559;DHT22;21661;50.794;-1.066;2023-04-01T15:01:35;12.30;99.90
35559;DHT22;21661;50.794;-1.066;2023-04-01T15:12:45;12.00;99.90
35559;DHT22;21661;50.794;-1.066;2023-04-01T15:15:39;12.00;99.90
35559;DHT22;21661;50.794;-1.066;2023-04-01T15:18:30;11.90;99.90
35559;DHT22;21661;50.794;-1.066;2023-04-01T15:27:33;11.60;99.90
35559;DHT22;21661;50.794;-1.066;2023-04-01T15:34:57;11.60;99.90
35559;DHT22;21661;50.794;-1.066;2023-04-01T15:37:54;11.50;99.90
35559;DHT22;21661;50.794;-1.066;2023-04-01T15:43:46;11.70;99.90
35559;DHT22;21661;50.794;-1.066;2023-04-01T15:52:05;11.60;99.90
35559;DHT22;21661;50.794;-1.066;2023-04-01T15:57:32;11.60;99.90
35559;DHT22;21661;50.794;-1.066;2023-04-01T16:02:49;11.70;99.90
35559;DHT22;21661;50.794;-1.066;2023-04-01T16:08:37;11.70;99.90
35559;DHT22;21661;50.794;-1.066;2023-04-01T16:14:11;11.60;99.90
35559;DHT22;21661;50.794;-1.066;2023-04-01T16:22:06;11.60;99.90
35559;DHT22;21661;50.794;-1.066;2023-04-01T16:24:44;11.70;99.90
35559;DHT22;21661;50.794;-1.066;2023-04-01T16:27:35;11.60;99.90
35559;DHT22;21661;50.794;-1.066;2023-04-01T16:30:26;11.60;99.90
35559;DHT22;21661;50.794;-1.066;2023-04-01T16:33:02;11.70;99.90
35559;DHT22;21661;50.794;-1.066;2023-04-01T16:35:41;11.70;99.90
35559;DHT22;21661;50.794;-1.066;2023-04-01T16:41:10;11.80;99.90
35559;DHT22;21661;50.794;-1.066;2023-04-01T16:43:53;11.90;99.90
35559;DHT22;21661;50.794;-1.066;2023-04-01T16:49:23;12.00;99.90
35559;DHT22;21661;50.794;-1.066;2023-04-01T16:52:12;12.00;99.90
35559;DHT22;21661;50.794;-1.066;2023-04-01T16:57:17;12.00;99.90
35559;DHT22;21661;50.794;-1.066;2023-04-01T17:02:16;12.10;99.90
35559;DHT22;21661;50.794;-1.066;2023-04-01T17:05:05;12.10;99.90
35559;DHT22;21661;50.794;-1.066;2023-04-01T17:07:53;12.20;99.90
35559;DHT22;21661;50.794;-1.066;2023-04-01T17:20:49;11.90;99.90
35559;DHT22;21661;50.794;-1.066;2023-04-01T17:23:23;11.90;99.90
35559;DHT22;21661;50.794;-1.066;2023-04-01T17:26:16;11.90;99.90
35559;DHT22;21661;50.794;-1.066;2023-04-01T17:29:38;11.80;99.90
35559;DHT22;21661;50.794;-1.066;2023-04-01T17:31:46;11.80;99.90
35559;DHT22;21661;50.794;-1.066;2023-04-01T17:34:31;11.70;99.90
35559;DHT22;21661;50.794;-1.066;2023-04-01T17:42:20;11.70;99.90
35559;DHT22;21661;50.794;-1.066;2023-04-01T17:48:14;11.70;99.90
35559;DHT22;21661;50.794;-1.066;2023-04-01T18:12:21;11.60;99.90
35559;DHT22;21661;50.794;-1.066;2023-04-01T18:15:59;11.50;99.90
35559;DHT22;21661;50.794;-1.066;2023-04-01T18:18:32;11.50;99.90
35559;DHT22;21661;50.794;-1.066;2023-04-01T18:26:21;11.50;99.90
35559;DHT22;21661;50.794;-1.066;2023-04-01T18:29:18;11.50;99.90
35559;DHT22;21661;50.794;-1.066;2023-04-01T18:31:52;11.40;99.90
35559;DHT22;21661;50.794;-1.066;2023-04-01T18:37:38;11.30;99.90
35559;DHT22;21661;50.794;-1.066;2023-04-01T18:43:00;11.40;99.90
35559;DHT22;21661;50.794;-1.066;2023-04-01T18:45:31;11.40;99.90
35559;DHT22;21661;50.794;-1.066;2023-04-01T18:48:15;11.30;99.90
35559;DHT22;21661;50.794;-1.066;2023-04-01T18:50:57;11.30;99.90
35559;DHT22;21661;50.794;-1.066;2023-04-01T18:53:53;11.20;99.90
35559;DHT22;21661;50.794;-1.066;2023-04-01T18:56:32;11.30;99.90
35559;DHT22;21661;50.794;-1.066;2023-04-01T18:59:10;11.20;99.90
35559;DHT22;21661;50.794;-1.066;2023-04-01T19:04:51;11.20;99.90
35559;DHT22;21661;50.794;-1.066;2023-04-01T19:18:32;11.10;99.90
35559;DHT22;21661;50.794;-1.066;2023-04-01T19:21:32;11.20;99.90
35559;DHT22;21661;50.794;-1.066;2023-04-01T19:26:42;11.10;99.90
35559;DHT22;21661;50.794;-1.066;2023-04-01T19:32:21;11.00;99.90
35559;DHT22;21661;50.794;-1.066;2023-04-01T19:43:10;10.80;99.90
35559;DHT22;21661;50.794;-1.066;2023-04-01T19:48:36;10.80;99.90
35559;DHT22;21661;50.794;-1.066;2023-04-01T19:54:21;10.70;99.90
35559;DHT22;21661;50.794;-1.066;2023-04-01T19:57:05;10.70;99.90
35559;DHT22;21661;50.794;-1.066;2023-04-01T20:04:49;10.70;99.90
35559;DHT22;21661;50.794;-1.066;2023-04-01T20:07:19;10.70;99.90
35559;DHT22;21661;50.794;-1.066;2023-04-01T20:15:36;10.70;99.90
35559;DHT22;21661;50.794;-1.066;2023-04-01T20:20:39;10.70;99.90
35559;DHT22;21661;50.794;-1.066;2023-04-01T20:26:23;10.60;99.90
35559;DHT22;21661;50.794;-1.066;2023-04-01T20:31:56;10.60;99.90
35559;DHT22;21661;50.794;-1.066;2023-04-01T20:34:46;10.60;99.90
35559;DHT22;21661;50.794;-1.066;2023-04-01T20:40:38;10.50;99.90
35559;DHT22;21661;50.794;-1.066;2023-04-01T20:51:18;10.40;99.90
35559;DHT22;21661;50.794;-1.066;2023-04-01T20:54:11;10.30;99.90
35559;DHT22;21661;50.794;-1.066;2023-04-01T20:57:09;10.30;99.90
35559;DHT22;21661;50.794;-1.066;2023-04-01T20:59:45;10.30;99.90
35559;DHT22;21661;50.794;-1.066;2023-04-01T21:08:02;10.10;99.90
35559;DHT22;21661;50.794;-1.066;2023-04-01T21:13:26;10.10;99.90
35559;DHT22;21661;50.794;-1.066;2023-04-01T21:16:10;10.10;99.90
35559;DHT22;21661;50.794;-1.066;2023-04-01T21:25:01;10.20;99.90
35559;DHT22;21661;50.794;-1.066;2023-04-01T21:44:09;10.10;99.90
35559;DHT22;21661;50.794;-1.066;2023-04-01T22:00:12;10.10;99.90
35559;DHT22;21661;50.794;-1.066;2023-04-01T22:05:28;10.10;99.90
35559;DHT22;21661;50.794;-1.066;2023-04-01T22:13:23;10.00;99.90
35559;DHT22;21661;50.794;-1.066;2023-04-01T22:16:16;10.10;99.90
35559;DHT22;21661;50.794;-1.066;2023-04-01T22:24:14;10.10;99.90
35559;DHT22;21661;50.794;-1.066;2023-04-01T22:29:20;10.10;99.90
35559;DHT22;21661;50.794;-1.066;2023-04-01T22:31:55;10.10;99.90
35559;DHT22;21661;50.794;-1.066;2023-04-01T22:50:38;10.00;99.90
35559;DHT22;21661;50.794;-1.066;2023-04-01T22:55:44;9.90;99.90
35559;DHT22;21661;50.794;-1.066;2023-04-01T22:58:28;9.90;99.90
35559;DHT22;21661;50.794;-1.066;2023-04-01T23:00:59;9.90;99.90
35559;DHT22;21661;50.794;-1.066;2023-04-01T23:03:30;10.00;99.90
35559;DHT22;21661;50.794;-1.066;2023-04-01T23:05:59;10.00;99.90
35559;DHT22;21661;50.794;-1.066;2023-04-01T23:11:22;10.00;99.90
35559;DHT22;21661;50.794;-1.066;2023-04-01T23:14:00;10.00;99.90
35559;DHT22;21661;50.794;-1.066;2023-04-01T23:16:35;9.90;99.90
35559;DHT22;21661;50.794;-1.066;2023-04-01T23:19:14;9.90;99.90
35559;DHT22;21661;50.794;-1.066;2023-04-01T23:21:46;9.90;99.90
35559;DHT22;21661;50.794;-1.066;2023-04-01T23:24:34;9.90;99.90
35559;DHT22;21661;50.794;-1.066;2023-04-01T23:27:05;9.90;99.90
35559;DHT22;21661;50.794;-1.066;2023-04-01T23:29:36;9.90;99.90
35559;DHT22;21661;50.794;-1.066;2023-04-01T23:32:05;9.80;99.90
35559;DHT22;21661;50.794;-1.066;2023-04-01T23:34:38;9.70;99.90
35559;DHT22;21661;50.794;-1.066;2023-04-01T23:37:08;9.70;99.90
35559;DHT22;21661;50.794;-1.066;2023-04-01T23:39:38;9.60;99.90
35559;DHT22;21661;50.794;-1.066;2023-04-01T23:42:14;9.60;99.90
35559;DHT22;21661;50.794;-1.066;2023-04-01T23:44:41;9.70;99.90
35559;DHT22;21661;50.794;-1.066;2023-04-01T23:47:14;9.70;99.90
35559;DHT22;21661;50.794;-1.066;2023-04-01T23:49:56;9.60;99.90
35559;DHT22;21661;50.794;-1.066;2023-04-01T23:52:27;9.70;99.90
35559;DHT22;21661;50.794;-1.066;2023-04-01T23:55:03;9.60;99.90
35559;DHT22;21661;50.794;-1.066;2023-04-01T23:57:34;9.60;99.90
